sensor_id;sensor_type;location;lat;lon;timestamp;temperature;humidity
46091;DHT22;31826;53.572;10.170;2023-02-01T00:01:44;5.10;99.90
46091;DHT22;31826;53.572;10.170;2023-02-01T00:04:10;5.20;99.90
46091;DHT22;31826;53.572;10.170;2023-02-01T00:06:35;5.10;99.90
46091;DHT22;31826;53.572;10.170;2023-02-01T00:09:01;5.20;99.90
46091;DHT22;31826;53.572;10.170;2023-02-01T00:11:27;5.20;99.90
46091;DHT22;31826;53.572;10.170;2023-02-01T00:13:53;5.20;99.90
46091;DHT22;31826;53.572;10.170;2023-02-01T00:16:25;5.30;99.90
46091;DHT22;31826;53.572;10.170;2023-02-01T00:19:06;5.20;99.90
46091;DHT22;31826;53.572;10.170;2023-02-01T00:21:32;5.20;99.90
46091;DHT22;31826;53.572;10.170;2023-02-01T00:23:58;5.10;99.90
46091;DHT22;31826;53.572;10.170;2023-02-01T00:26:35;4.90;99.90
46091;DHT22;31826;53.572;10.170;2023-02-01T00:29:03;4.90;99.90
46091;DHT22;31826;53.572;10.170;2023-02-01T00:31:29;4.90;99.90
46091;DHT22;31826;53.572;10.170;2023-02-01T00:33:55;4.90;99.90
46091;DHT22;31826;53.572;10.170;2023-02-01T00:36:20;4.90;99.90
46091;DHT22;31826;53.572;10.170;2023-02-01T00:38:46;4.90;99.90
46091;DHT22;31826;53.572;10.170;2023-02-01T00:41:17;4.80;99.90
46091;DHT22;31826;53.572;10.170;2023-02-01T00:43:44;4.90;99.90
46091;DHT22;31826;53.572;10.170;2023-02-01T00:46:11;5.00;99.90
46091;DHT22;31826;53.572;10.170;2023-02-01T00:48:37;5.10;99.90
46091;DHT22;31826;53.572;10.170;2023-02-01T00:51:08;5.10;99.90
46091;DHT22;31826;53.572;10.170;2023-02-01T00:53:35;5.10;99.90
46091;DHT22;31826;53.572;10.170;2023-02-01T00:56:02;5.10;99.90
46091;DHT22;31826;53.572;10.170;2023-02-01T00:58:28;5.10;99.90
46091;DHT22;31826;53.572;10.170;2023-02-01T01:01:32;5.10;99.90
46091;DHT22;31826;53.572;10.170;2023-02-01T01:03:58;5.20;99.90
46091;DHT22;31826;53.572;10.170;2023-02-01T01:06:27;5.20;99.90
46091;DHT22;31826;53.572;10.170;2023-02-01T01:08:55;5.10;99.90
46091;DHT22;31826;53.572;10.170;2023-02-01T01:11:23;5.10;99.90
46091;DHT22;31826;53.572;10.170;2023-02-01T01:13:51;5.20;99.90
46091;DHT22;31826;53.572;10.170;2023-02-01T01:16:18;5.10;99.90
46091;DHT22;31826;53.572;10.170;2023-02-01T01:18:44;5.20;99.90
46091;DHT22;31826;53.572;10.170;2023-02-01T01:21:13;5.20;99.90
46091;DHT22;31826;53.572;10.170;2023-02-01T01:23:39;5.20;99.90
46091;DHT22;31826;53.572;10.170;2023-02-01T01:26:10;5.20;99.90
46091;DHT22;31826;53.572;10.170;2023-02-01T01:28:36;5.20;99.90
46091;DHT22;31826;53.572;10.170;2023-02-01T01:31:02;5.30;99.90
46091;DHT22;31826;53.572;10.170;2023-02-01T01:33:28;5.30;99.90
46091;DHT22;31826;53.572;10.170;2023-02-01T01:35:54;5.30;99.90
46091;DHT22;31826;53.572;10.170;2023-02-01T01:38:19;5.30;99.90
46091;DHT22;31826;53.572;10.170;2023-02-01T01:40:46;5.30;99.90
46091;DHT22;31826;53.572;10.170;2023-02-01T01:43:17;5.40;99.90
46091;DHT22;31826;53.572;10.170;2023-02-01T01:45:45;5.30;99.90
46091;DHT22;31826;53.572;10.170;2023-02-01T01:48:27;5.30;99.90
46091;DHT22;31826;53.572;10.170;2023-02-01T01:51:04;5.30;99.90
46091;DHT22;31826;53.572;10.170;2023-02-01T01:53:42;5.30;99.90
46091;DHT22;31826;53.572;10.170;2023-02-01T01:56:09;5.30;99.90
46091;DHT22;31826;53.572;10.170;2023-02-01T01:58:35;5.30;99.90
46091;DHT22;31826;53.572;10.170;2023-02-01T02:01:02;5.30;99.90
46091;DHT22;31826;53.572;10.170;2023-02-01T02:03:46;5.40;99.90
46091;DHT22;31826;53.572;10.170;2023-02-01T02:06:36;5.40;99.90
46091;DHT22;31826;53.572;10.170;2023-02-01T02:09:02;5.50;99.90
46091;DHT22;31826;53.572;10.170;2023-02-01T02:11:28;5.50;99.90
46091;DHT22;31826;53.572;10.170;2023-02-01T02:13:55;5.40;99.90
46091;DHT22;31826;53.572;10.170;2023-02-01T02:22:14;5.40;99.90
46091;DHT22;31826;53.572;10.170;2023-02-01T02:27:59;5.50;99.90
46091;DHT22;31826;53.572;10.170;2023-02-01T02:36:15;5.40;99.90
46091;DHT22;31826;53.572;10.170;2023-02-01T02:44:45;5.40;99.90
46091;DHT22;31826;53.572;10.170;2023-02-01T02:47:41;5.40;99.90
46091;DHT22;31826;53.572;10.170;2023-02-01T02:53:18;5.40;99.90
46091;DHT22;31826;53.572;10.170;2023-02-01T02:56:04;5.30;99.90
46091;DHT22;31826;53.572;10.170;2023-02-01T02:58:50;5.30;99.90
46091;DHT22;31826;53.572;10.170;2023-02-01T03:01:34;5.40;99.90
46091;DHT22;31826;53.572;10.170;2023-02-01T03:04:18;5.30;99.90
46091;DHT22;31826;53.572;10.170;2023-02-01T03:06:45;5.20;99.90
46091;DHT22;31826;53.572;10.170;2023-02-01T03:09:26;5.30;99.90
46091;DHT22;31826;53.572;10.170;2023-02-01T03:12:03;5.30;99.90
46091;DHT22;31826;53.572;10.170;2023-02-01T03:14:52;5.20;99.90
46091;DHT22;31826;53.572;10.170;2023-02-01T03:17:27;5.20;99.90
46091;DHT22;31826;53.572;10.170;2023-02-01T03:20:00;5.10;99.90
46091;DHT22;31826;53.572;10.170;2023-02-01T03:22:28;5.10;99.90
46091;DHT22;31826;53.572;10.170;2023-02-01T03:25:06;5.10;99.90
46091;DHT22;31826;53.572;10.170;2023-02-01T03:27:41;5.00;99.90
46091;DHT22;31826;53.572;10.170;2023-02-01T03:32:48;5.00;99.90
46091;DHT22;31826;53.572;10.170;2023-02-01T03:38:22;4.90;99.90
46091;DHT22;31826;53.572;10.170;2023-02-01T03:43:46;5.00;99.90
46091;DHT22;31826;53.572;10.170;2023-02-01T03:46:20;5.00;99.90
46091;DHT22;31826;53.572;10.170;2023-02-01T03:48:47;4.90;99.90
46091;DHT22;31826;53.572;10.170;2023-02-01T03:51:14;4.90;99.90
46091;DHT22;31826;53.572;10.170;2023-02-01T03:53:43;4.90;99.90
46091;DHT22;31826;53.572;10.170;2023-02-01T03:56:12;4.90;99.90
46091;DHT22;31826;53.572;10.170;2023-02-01T03:58:38;4.90;99.90
46091;DHT22;31826;53.572;10.170;2023-02-01T04:01:04;4.80;99.90
46091;DHT22;31826;53.572;10.170;2023-02-01T04:03:30;4.70;99.90
46091;DHT22;31826;53.572;10.170;2023-02-01T04:05:55;4.70;99.90
46091;DHT22;31826;53.572;10.170;2023-02-01T04:08:22;4.70;99.90
46091;DHT22;31826;53.572;10.170;2023-02-01T04:10:48;4.70;99.90
46091;DHT22;31826;53.572;10.170;2023-02-01T04:13:13;4.70;99.90
46091;DHT22;31826;53.572;10.170;2023-02-01T04:15:39;4.70;99.90
46091;DHT22;31826;53.572;10.170;2023-02-01T04:18:05;4.60;99.90
46091;DHT22;31826;53.572;10.170;2023-02-01T04:20:31;4.70;99.90
46091;DHT22;31826;53.572;10.170;2023-02-01T04:22:57;4.70;99.90
46091;DHT22;31826;53.572;10.170;2023-02-01T04:25:23;4.70;99.90
46091;DHT22;31826;53.572;10.170;2023-02-01T04:27:49;4.70;99.90
46091;DHT22;31826;53.572;10.170;2023-02-01T04:30:15;4.60;99.90
46091;DHT22;31826;53.572;10.170;2023-02-01T04:32:41;4.70;99.90
46091;DHT22;31826;53.572;10.170;2023-02-01T04:35:07;4.60;99.90
46091;DHT22;31826;53.572;10.170;2023-02-01T04:37:33;4.70;99.90
46091;DHT22;31826;53.572;10.170;2023-02-01T04:39:59;4.70;99.90
46091;DHT22;31826;53.572;10.170;2023-02-01T04:42:25;4.70;99.90
46091;DHT22;31826;53.572;10.170;2023-02-01T04:44:51;4.70;99.90
46091;DHT22;31826;53.572;10.170;2023-02-01T04:47:16;4.70;99.90
46091;DHT22;31826;53.572;10.170;2023-02-01T04:49:42;4.60;99.90
46091;DHT22;31826;53.572;10.170;2023-02-01T04:52:08;4.60;99.90
46091;DHT22;31826;53.572;10.170;2023-02-01T04:54:34;4.60;99.90
46091;DHT22;31826;53.572;10.170;2023-02-01T04:56:59;4.60;99.90
46091;DHT22;31826;53.572;10.170;2023-02-01T04:59:26;4.60;99.90
46091;DHT22;31826;53.572;10.170;2023-02-01T05:01:52;4.60;99.90
46091;DHT22;31826;53.572;10.170;2023-02-01T05:04:17;4.50;99.90
46091;DHT22;31826;53.572;10.170;2023-02-01T05:06:44;4.60;99.90
46091;DHT22;31826;53.572;10.170;2023-02-01T05:09:10;4.60;99.90
46091;DHT22;31826;53.572;10.170;2023-02-01T05:11:36;4.50;99.90
46091;DHT22;31826;53.572;10.170;2023-02-01T05:14:20;4.50;99.90
46091;DHT22;31826;53.572;10.170;2023-02-01T05:16:48;4.50;99.90
46091;DHT22;31826;53.572;10.170;2023-02-01T05:19:14;4.50;99.90
46091;DHT22;31826;53.572;10.170;2023-02-01T05:21:39;4.50;99.90
46091;DHT22;31826;53.572;10.170;2023-02-01T05:24:06;4.40;99.90
46091;DHT22;31826;53.572;10.170;2023-02-01T05:26:36;4.40;99.90
46091;DHT22;31826;53.572;10.170;2023-02-01T05:29:02;4.20;99.90
46091;DHT22;31826;53.572;10.170;2023-02-01T05:31:28;4.10;99.90
46091;DHT22;31826;53.572;10.170;2023-02-01T05:33:54;4.00;99.90
46091;DHT22;31826;53.572;10.170;2023-02-01T05:36:20;4.00;99.90
46091;DHT22;31826;53.572;10.170;2023-02-01T05:38:45;3.80;99.90
46091;DHT22;31826;53.572;10.170;2023-02-01T05:41:11;3.70;99.90
46091;DHT22;31826;53.572;10.170;2023-02-01T05:43:37;3.70;99.90
46091;DHT22;31826;53.572;10.170;2023-02-01T05:46:03;3.70;99.90
46091;DHT22;31826;53.572;10.170;2023-02-01T05:48:28;3.70;99.90
46091;DHT22;31826;53.572;10.170;2023-02-01T05:50:54;3.60;99.90
46091;DHT22;31826;53.572;10.170;2023-02-01T05:53:20;3.60;99.90
46091;DHT22;31826;53.572;10.170;2023-02-01T05:55:45;3.50;99.90
46091;DHT22;31826;53.572;10.170;2023-02-01T05:58:11;3.50;99.90
46091;DHT22;31826;53.572;10.170;2023-02-01T06:00:37;3.40;99.90
46091;DHT22;31826;53.572;10.170;2023-02-01T06:03:03;3.40;99.90
46091;DHT22;31826;53.572;10.170;2023-02-01T06:05:29;3.40;99.90
46091;DHT22;31826;53.572;10.170;2023-02-01T06:07:55;3.30;99.90
46091;DHT22;31826;53.572;10.170;2023-02-01T06:10:21;3.40;99.90
46091;DHT22;31826;53.572;10.170;2023-02-01T06:12:47;3.40;99.90
46091;DHT22;31826;53.572;10.170;2023-02-01T06:15:13;3.40;99.90
46091;DHT22;31826;53.572;10.170;2023-02-01T06:17:41;3.40;99.90
46091;DHT22;31826;53.572;10.170;2023-02-01T06:20:09;3.30;99.90
46091;DHT22;31826;53.572;10.170;2023-02-01T06:22:35;3.30;99.90
46091;DHT22;31826;53.572;10.170;2023-02-01T06:25:03;3.30;99.90
46091;DHT22;31826;53.572;10.170;2023-02-01T06:27:29;3.40;99.90
46091;DHT22;31826;53.572;10.170;2023-02-01T06:29:55;3.30;99.90
46091;DHT22;31826;53.572;10.170;2023-02-01T06:32:21;3.40;99.90
46091;DHT22;31826;53.572;10.170;2023-02-01T06:34:48;3.40;99.90
46091;DHT22;31826;53.572;10.170;2023-02-01T06:37:14;3.40;99.90
46091;DHT22;31826;53.572;10.170;2023-02-01T06:39:39;3.50;99.90
46091;DHT22;31826;53.572;10.170;2023-02-01T06:42:05;3.40;99.90
46091;DHT22;31826;53.572;10.170;2023-02-01T06:44:31;3.50;99.90
46091;DHT22;31826;53.572;10.170;2023-02-01T06:46:57;3.50;99.90
46091;DHT22;31826;53.572;10.170;2023-02-01T06:49:22;3.50;99.90
46091;DHT22;31826;53.572;10.170;2023-02-01T06:51:48;3.50;99.90
46091;DHT22;31826;53.572;10.170;2023-02-01T06:54:14;3.50;99.90
46091;DHT22;31826;53.572;10.170;2023-02-01T06:56:39;3.50;99.90
46091;DHT22;31826;53.572;10.170;2023-02-01T06:59:06;3.70;99.90
46091;DHT22;31826;53.572;10.170;2023-02-01T07:01:33;3.70;99.90
46091;DHT22;31826;53.572;10.170;2023-02-01T07:03:59;3.70;99.90
46091;DHT22;31826;53.572;10.170;2023-02-01T07:06:25;3.70;99.90
46091;DHT22;31826;53.572;10.170;2023-02-01T07:08:50;3.70;99.90
46091;DHT22;31826;53.572;10.170;2023-02-01T07:11:17;3.80;99.90
46091;DHT22;31826;53.572;10.170;2023-02-01T07:13:44;3.90;99.90
46091;DHT22;31826;53.572;10.170;2023-02-01T07:16:18;3.80;99.90
46091;DHT22;31826;53.572;10.170;2023-02-01T07:18:44;3.90;99.90
46091;DHT22;31826;53.572;10.170;2023-02-01T07:21:10;4.00;99.90
46091;DHT22;31826;53.572;10.170;2023-02-01T07:23:36;4.00;99.90
46091;DHT22;31826;53.572;10.170;2023-02-01T07:26:04;4.00;99.90
46091;DHT22;31826;53.572;10.170;2023-02-01T07:28:31;4.00;99.90
46091;DHT22;31826;53.572;10.170;2023-02-01T07:31:09;4.10;99.90
46091;DHT22;31826;53.572;10.170;2023-02-01T07:33:35;4.10;99.90
46091;DHT22;31826;53.572;10.170;2023-02-01T07:36:03;4.20;99.90
46091;DHT22;31826;53.572;10.170;2023-02-01T07:38:29;4.20;99.90
46091;DHT22;31826;53.572;10.170;2023-02-01T07:40:59;4.20;99.90
46091;DHT22;31826;53.572;10.170;2023-02-01T07:43:26;4.30;99.90
46091;DHT22;31826;53.572;10.170;2023-02-01T07:45:52;4.30;99.90
46091;DHT22;31826;53.572;10.170;2023-02-01T07:48:18;4.30;99.90
46091;DHT22;31826;53.572;10.170;2023-02-01T07:50:44;4.40;99.90
46091;DHT22;31826;53.572;10.170;2023-02-01T07:53:10;4.40;99.90
46091;DHT22;31826;53.572;10.170;2023-02-01T07:55:39;4.30;99.90
46091;DHT22;31826;53.572;10.170;2023-02-01T07:58:05;4.30;99.90
46091;DHT22;31826;53.572;10.170;2023-02-01T08:00:31;4.30;99.90
46091;DHT22;31826;53.572;10.170;2023-02-01T08:03:15;4.30;99.90
46091;DHT22;31826;53.572;10.170;2023-02-01T08:05:41;4.30;99.90
46091;DHT22;31826;53.572;10.170;2023-02-01T08:08:06;4.40;99.90
46091;DHT22;31826;53.572;10.170;2023-02-01T08:10:32;4.40;99.90
46091;DHT22;31826;53.572;10.170;2023-02-01T08:13:00;4.30;99.90
46091;DHT22;31826;53.572;10.170;2023-02-01T08:15:28;4.40;99.90
46091;DHT22;31826;53.572;10.170;2023-02-01T08:17:54;4.50;99.90
46091;DHT22;31826;53.572;10.170;2023-02-01T08:20:21;4.60;99.90
46091;DHT22;31826;53.572;10.170;2023-02-01T08:22:49;4.60;99.90
46091;DHT22;31826;53.572;10.170;2023-02-01T08:25:14;4.70;99.90
46091;DHT22;31826;53.572;10.170;2023-02-01T08:27:40;4.80;99.90
46091;DHT22;31826;53.572;10.170;2023-02-01T08:30:06;4.80;99.90
46091;DHT22;31826;53.572;10.170;2023-02-01T08:32:33;4.80;99.90
46091;DHT22;31826;53.572;10.170;2023-02-01T08:34:59;4.80;99.90
46091;DHT22;31826;53.572;10.170;2023-02-01T08:37:25;4.90;99.90
46091;DHT22;31826;53.572;10.170;2023-02-01T08:39:51;5.00;99.90
46091;DHT22;31826;53.572;10.170;2023-02-01T08:42:17;5.10;99.90
46091;DHT22;31826;53.572;10.170;2023-02-01T08:45:03;5.10;99.90
46091;DHT22;31826;53.572;10.170;2023-02-01T08:47:29;5.20;99.90
46091;DHT22;31826;53.572;10.170;2023-02-01T08:49:55;5.30;99.90
46091;DHT22;31826;53.572;10.170;2023-02-01T08:52:21;5.30;99.90
46091;DHT22;31826;53.572;10.170;2023-02-01T08:54:47;5.20;99.90
46091;DHT22;31826;53.572;10.170;2023-02-01T08:57:12;5.20;99.90
46091;DHT22;31826;53.572;10.170;2023-02-01T08:59:38;5.20;99.90
46091;DHT22;31826;53.572;10.170;2023-02-01T09:02:04;5.10;99.90
46091;DHT22;31826;53.572;10.170;2023-02-01T09:04:30;5.10;99.90
46091;DHT22;31826;53.572;10.170;2023-02-01T09:06:56;5.10;99.90
46091;DHT22;31826;53.572;10.170;2023-02-01T09:09:22;5.10;99.90
46091;DHT22;31826;53.572;10.170;2023-02-01T09:11:48;5.10;99.90
46091;DHT22;31826;53.572;10.170;2023-02-01T09:14:16;5.10;99.90
46091;DHT22;31826;53.572;10.170;2023-02-01T09:16:42;5.20;99.90
46091;DHT22;31826;53.572;10.170;2023-02-01T09:19:07;5.20;99.90
46091;DHT22;31826;53.572;10.170;2023-02-01T09:21:33;5.40;99.90
46091;DHT22;31826;53.572;10.170;2023-02-01T09:23:59;5.40;99.90
46091;DHT22;31826;53.572;10.170;2023-02-01T09:26:25;5.40;99.90
46091;DHT22;31826;53.572;10.170;2023-02-01T09:28:51;5.50;99.90
46091;DHT22;31826;53.572;10.170;2023-02-01T09:31:17;5.60;99.90
46091;DHT22;31826;53.572;10.170;2023-02-01T09:33:43;5.80;99.90
46091;DHT22;31826;53.572;10.170;2023-02-01T09:36:09;5.90;99.90
46091;DHT22;31826;53.572;10.170;2023-02-01T09:38:35;5.90;99.90
46091;DHT22;31826;53.572;10.170;2023-02-01T09:41:00;6.00;99.90
46091;DHT22;31826;53.572;10.170;2023-02-01T09:44:39;6.20;99.90
46091;DHT22;31826;53.572;10.170;2023-02-01T09:46:32;6.30;99.90
46091;DHT22;31826;53.572;10.170;2023-02-01T09:49:39;6.30;99.90
46091;DHT22;31826;53.572;10.170;2023-02-01T09:51:58;6.30;99.90
46091;DHT22;31826;53.572;10.170;2023-02-01T09:54:49;6.10;99.90
46091;DHT22;31826;53.572;10.170;2023-02-01T09:57:22;6.10;99.90
46091;DHT22;31826;53.572;10.170;2023-02-01T10:00:20;6.10;99.90
46091;DHT22;31826;53.572;10.170;2023-02-01T10:02:48;6.10;99.90
46091;DHT22;31826;53.572;10.170;2023-02-01T10:05:18;6.10;99.90
46091;DHT22;31826;53.572;10.170;2023-02-01T10:08:19;6.10;99.90
46091;DHT22;31826;53.572;10.170;2023-02-01T10:10:48;6.10;99.90
46091;DHT22;31826;53.572;10.170;2023-02-01T10:13:27;6.20;99.90
46091;DHT22;31826;53.572;10.170;2023-02-01T10:19:05;6.50;99.90
46091;DHT22;31826;53.572;10.170;2023-02-01T10:21:46;6.50;99.90
46091;DHT22;31826;53.572;10.170;2023-02-01T10:24:28;6.50;99.90
46091;DHT22;31826;53.572;10.170;2023-02-01T10:27:02;6.40;99.90
46091;DHT22;31826;53.572;10.170;2023-02-01T10:29:35;6.50;99.90
46091;DHT22;31826;53.572;10.170;2023-02-01T10:32:03;6.50;99.90
46091;DHT22;31826;53.572;10.170;2023-02-01T10:34:34;6.50;99.90
46091;DHT22;31826;53.572;10.170;2023-02-01T10:37:27;6.50;99.90
46091;DHT22;31826;53.572;10.170;2023-02-01T10:39:55;6.40;99.90
46091;DHT22;31826;53.572;10.170;2023-02-01T10:42:27;6.40;99.90
46091;DHT22;31826;53.572;10.170;2023-02-01T10:44:58;6.30;99.90
46091;DHT22;31826;53.572;10.170;2023-02-01T10:47:24;6.30;99.90
46091;DHT22;31826;53.572;10.170;2023-02-01T10:55:33;6.00;99.90
46091;DHT22;31826;53.572;10.170;2023-02-01T10:58:02;5.80;99.90
46091;DHT22;31826;53.572;10.170;2023-02-01T11:00:39;5.60;99.90
46091;DHT22;31826;53.572;10.170;2023-02-01T11:03:39;5.60;99.90
46091;DHT22;31826;53.572;10.170;2023-02-01T11:06:27;5.50;99.90
46091;DHT22;31826;53.572;10.170;2023-02-01T11:08:56;5.50;99.90
46091;DHT22;31826;53.572;10.170;2023-02-01T11:11:23;5.40;99.90
46091;DHT22;31826;53.572;10.170;2023-02-01T11:13:54;5.50;99.90
46091;DHT22;31826;53.572;10.170;2023-02-01T11:16:21;5.40;99.90
46091;DHT22;31826;53.572;10.170;2023-02-01T11:18:53;5.40;99.90
46091;DHT22;31826;53.572;10.170;2023-02-01T11:21:20;5.30;99.90
46091;DHT22;31826;53.572;10.170;2023-02-01T11:23:46;5.30;99.90
46091;DHT22;31826;53.572;10.170;2023-02-01T11:26:19;5.30;99.90
46091;DHT22;31826;53.572;10.170;2023-02-01T11:28:56;5.30;99.90
46091;DHT22;31826;53.572;10.170;2023-02-01T11:31:24;5.30;99.90
46091;DHT22;31826;53.572;10.170;2023-02-01T11:34:04;5.20;99.90
46091;DHT22;31826;53.572;10.170;2023-02-01T11:36:33;5.20;99.90
46091;DHT22;31826;53.572;10.170;2023-02-01T11:39:28;5.20;99.90
46091;DHT22;31826;53.572;10.170;2023-02-01T11:42:15;5.20;99.90
46091;DHT22;31826;53.572;10.170;2023-02-01T11:44:46;5.40;99.90
46091;DHT22;31826;53.572;10.170;2023-02-01T11:47:22;5.50;99.90
46091;DHT22;31826;53.572;10.170;2023-02-01T11:49:52;5.60;99.90
46091;DHT22;31826;53.572;10.170;2023-02-01T12:11:40;5.80;99.90
46091;DHT22;31826;53.572;10.170;2023-02-01T12:22:52;5.60;99.90
46091;DHT22;31826;53.572;10.170;2023-02-01T12:41:47;5.40;99.90
46091;DHT22;31826;53.572;10.170;2023-02-01T12:52:11;5.10;99.90
46091;DHT22;31826;53.572;10.170;2023-02-01T12:54:49;5.10;99.90
46091;DHT22;31826;53.572;10.170;2023-02-01T12:57:25;5.00;99.90
46091;DHT22;31826;53.572;10.170;2023-02-01T13:05:28;4.80;99.90
46091;DHT22;31826;53.572;10.170;2023-02-01T13:08:04;4.80;99.90
46091;DHT22;31826;53.572;10.170;2023-02-01T13:10:56;4.80;99.90
46091;DHT22;31826;53.572;10.170;2023-02-01T13:13:48;4.70;99.90
46091;DHT22;31826;53.572;10.170;2023-02-01T13:16:34;4.70;99.90
46091;DHT22;31826;53.572;10.170;2023-02-01T13:19:14;4.70;99.90
46091;DHT22;31826;53.572;10.170;2023-02-01T13:21:46;4.70;99.90
46091;DHT22;31826;53.572;10.170;2023-02-01T13:26:55;4.60;99.90
46091;DHT22;31826;53.572;10.170;2023-02-01T13:29:22;4.70;99.90
46091;DHT22;31826;53.572;10.170;2023-02-01T13:32:15;4.80;99.90
46091;DHT22;31826;53.572;10.170;2023-02-01T13:35:18;4.90;99.90
46091;DHT22;31826;53.572;10.170;2023-02-01T13:43:40;5.50;99.90
46091;DHT22;31826;53.572;10.170;2023-02-01T13:46:09;5.50;99.90
46091;DHT22;31826;53.572;10.170;2023-02-01T13:48:53;5.60;99.90
46091;DHT22;31826;53.572;10.170;2023-02-01T13:53:56;5.60;99.90
46091;DHT22;31826;53.572;10.170;2023-02-01T13:56:23;5.50;99.90
46091;DHT22;31826;53.572;10.170;2023-02-01T13:58:50;5.40;99.90
46091;DHT22;31826;53.572;10.170;2023-02-01T14:03:53;5.20;99.90
46091;DHT22;31826;53.572;10.170;2023-02-01T14:19:18;4.90;99.90
46091;DHT22;31826;53.572;10.170;2023-02-01T14:21:53;4.80;99.90
46091;DHT22;31826;53.572;10.170;2023-02-01T14:24:25;4.70;99.90
46091;DHT22;31826;53.572;10.170;2023-02-01T14:27:02;4.60;99.90
46091;DHT22;31826;53.572;10.170;2023-02-01T14:29:36;4.60;99.90
46091;DHT22;31826;53.572;10.170;2023-02-01T14:58:41;3.80;99.90
46091;DHT22;31826;53.572;10.170;2023-02-01T15:01:31;3.80;99.90
46091;DHT22;31826;53.572;10.170;2023-02-01T15:04:03;3.90;99.90
46091;DHT22;31826;53.572;10.170;2023-02-01T15:09:09;4.00;99.90
46091;DHT22;31826;53.572;10.170;2023-02-01T15:11:58;4.00;99.90
46091;DHT22;31826;53.572;10.170;2023-02-01T15:14:26;4.10;99.90
46091;DHT22;31826;53.572;10.170;2023-02-01T15:16:52;4.10;99.90
46091;DHT22;31826;53.572;10.170;2023-02-01T15:19:23;4.20;99.90
46091;DHT22;31826;53.572;10.170;2023-02-01T15:21:52;4.20;99.90
46091;DHT22;31826;53.572;10.170;2023-02-01T15:26:45;4.30;99.90
46091;DHT22;31826;53.572;10.170;2023-02-01T15:29:13;4.30;99.90
46091;DHT22;31826;53.572;10.170;2023-02-01T15:31:41;4.40;99.90
46091;DHT22;31826;53.572;10.170;2023-02-01T15:34:08;4.40;99.90
46091;DHT22;31826;53.572;10.170;2023-02-01T15:36:34;4.40;99.90
46091;DHT22;31826;53.572;10.170;2023-02-01T15:41:58;4.40;99.90
46091;DHT22;31826;53.572;10.170;2023-02-01T15:44:38;4.40;99.90
46091;DHT22;31826;53.572;10.170;2023-02-01T15:47:16;4.30;99.90
46091;DHT22;31826;53.572;10.170;2023-02-01T15:49:44;4.30;99.90
46091;DHT22;31826;53.572;10.170;2023-02-01T15:55:00;4.40;99.90
46091;DHT22;31826;53.572;10.170;2023-02-01T15:57:35;4.40;99.90
46091;DHT22;31826;53.572;10.170;2023-02-01T16:00:07;4.40;99.90
46091;DHT22;31826;53.572;10.170;2023-02-01T16:02:42;4.40;99.90
46091;DHT22;31826;53.572;10.170;2023-02-01T16:05:35;4.40;99.90
46091;DHT22;31826;53.572;10.170;2023-02-01T16:08:15;4.40;99.90
46091;DHT22;31826;53.572;10.170;2023-02-01T16:10:47;4.40;99.90
46091;DHT22;31826;53.572;10.170;2023-02-01T16:13:14;4.40;99.90
46091;DHT22;31826;53.572;10.170;2023-02-01T16:15:40;4.30;99.90
46091;DHT22;31826;53.572;10.170;2023-02-01T16:18:06;4.40;99.90
46091;DHT22;31826;53.572;10.170;2023-02-01T16:20:36;4.30;99.90
46091;DHT22;31826;53.572;10.170;2023-02-01T16:23:03;4.40;99.90
46091;DHT22;31826;53.572;10.170;2023-02-01T16:25:30;4.40;99.90
46091;DHT22;31826;53.572;10.170;2023-02-01T16:27:56;4.40;99.90
46091;DHT22;31826;53.572;10.170;2023-02-01T16:30:21;4.40;99.90
46091;DHT22;31826;53.572;10.170;2023-02-01T16:32:57;4.40;99.90
46091;DHT22;31826;53.572;10.170;2023-02-01T16:40:34;4.40;99.90
46091;DHT22;31826;53.572;10.170;2023-02-01T16:43:00;4.40;99.90
46091;DHT22;31826;53.572;10.170;2023-02-01T16:45:26;4.40;99.90
46091;DHT22;31826;53.572;10.170;2023-02-01T16:47:54;4.40;99.90
46091;DHT22;31826;53.572;10.170;2023-02-01T16:50:23;4.50;99.90
46091;DHT22;31826;53.572;10.170;2023-02-01T16:52:50;4.50;99.90
46091;DHT22;31826;53.572;10.170;2023-02-01T16:55:18;4.50;99.90
46091;DHT22;31826;53.572;10.170;2023-02-01T16:57:44;4.60;99.90
46091;DHT22;31826;53.572;10.170;2023-02-01T17:00:11;4.60;99.90
46091;DHT22;31826;53.572;10.170;2023-02-01T17:02:38;4.50;99.90
46091;DHT22;31826;53.572;10.170;2023-02-01T17:05:05;4.50;99.90
46091;DHT22;31826;53.572;10.170;2023-02-01T17:07:31;4.50;99.90
46091;DHT22;31826;53.572;10.170;2023-02-01T17:09:57;4.50;99.90
46091;DHT22;31826;53.572;10.170;2023-02-01T17:12:25;4.50;99.90
46091;DHT22;31826;53.572;10.170;2023-02-01T17:14:51;4.50;99.90
46091;DHT22;31826;53.572;10.170;2023-02-01T17:17:19;4.60;99.90
46091;DHT22;31826;53.572;10.170;2023-02-01T17:19:48;4.60;99.90
46091;DHT22;31826;53.572;10.170;2023-02-01T17:22:18;4.60;99.90
46091;DHT22;31826;53.572;10.170;2023-02-01T17:24:44;4.70;99.90
46091;DHT22;31826;53.572;10.170;2023-02-01T17:27:09;4.70;99.90
46091;DHT22;31826;53.572;10.170;2023-02-01T17:29:35;4.70;99.90
46091;DHT22;31826;53.572;10.170;2023-02-01T17:32:02;4.70;99.90
46091;DHT22;31826;53.572;10.170;2023-02-01T17:34:28;4.70;99.90
46091;DHT22;31826;53.572;10.170;2023-02-01T17:36:54;4.70;99.90
46091;DHT22;31826;53.572;10.170;2023-02-01T17:39:19;4.70;99.90
46091;DHT22;31826;53.572;10.170;2023-02-01T17:42:05;4.90;99.90
46091;DHT22;31826;53.572;10.170;2023-02-01T17:44:33;4.90;99.90
46091;DHT22;31826;53.572;10.170;2023-02-01T17:46:59;4.90;99.90
46091;DHT22;31826;53.572;10.170;2023-02-01T17:49:25;5.00;99.90
46091;DHT22;31826;53.572;10.170;2023-02-01T17:51:53;5.00;99.90
46091;DHT22;31826;53.572;10.170;2023-02-01T17:54:19;5.00;99.90
46091;DHT22;31826;53.572;10.170;2023-02-01T17:56:45;5.10;99.90
46091;DHT22;31826;53.572;10.170;2023-02-01T17:59:13;5.10;99.90
46091;DHT22;31826;53.572;10.170;2023-02-01T18:01:39;5.20;99.90
46091;DHT22;31826;53.572;10.170;2023-02-01T18:04:07;5.10;99.90
46091;DHT22;31826;53.572;10.170;2023-02-01T18:06:36;5.10;99.90
46091;DHT22;31826;53.572;10.170;2023-02-01T18:09:01;5.10;99.90
46091;DHT22;31826;53.572;10.170;2023-02-01T18:11:27;5.10;99.90
46091;DHT22;31826;53.572;10.170;2023-02-01T18:13:57;5.20;99.90
46091;DHT22;31826;53.572;10.170;2023-02-01T18:16:29;5.20;99.90
46091;DHT22;31826;53.572;10.170;2023-02-01T18:18:55;5.30;99.90
46091;DHT22;31826;53.572;10.170;2023-02-01T18:21:29;5.20;99.90
46091;DHT22;31826;53.572;10.170;2023-02-01T18:23:57;5.30;99.90
46091;DHT22;31826;53.572;10.170;2023-02-01T18:26:22;5.20;99.90
46091;DHT22;31826;53.572;10.170;2023-02-01T18:28:48;5.10;99.90
46091;DHT22;31826;53.572;10.170;2023-02-01T18:33:45;5.10;99.90
46091;DHT22;31826;53.572;10.170;2023-02-01T18:36:12;5.20;99.90
46091;DHT22;31826;53.572;10.170;2023-02-01T18:38:37;5.10;99.90